CheckWX is a tool to help pilots better visualize weather data.  It is not intended as a substitute for an official pre-flight weather briefing.

13:05:12 UTC

EGPH TAF
Edinburgh Airport
Edinburgh, United Kingdom
TAF EGPH 201100Z 2012/2112 26010KT 9999 SCT025 PROB40 TEMPO 2012/2018 7000 SHRA BECMG 2018/2021 VRB05KT PROB30 TEMPO 2100/2108 7000 RA BKN014 BECMG 2106/2109 22010KT PROB30 TEMPO 2110/2112 22015G25KT

Aug-20@
12:00 UTC

Aug-20 @ 12:00 UTC

Aug-20@
18:00 UTC

Aug-20 @ 18:00 UTC

TAF EGPH 201100Z 2012/2112 26010KT 9999 SCT025
Wind
  • 260° at 10 KTS
Cloud Levels
  • Scattered at 2,500' AGL

Aug-20@
12:00 UTC

Aug-20 @ 12:00 UTC

Aug-20@
18:00 UTC

Aug-20 @ 18:00 UTC

PROB40 TEMPO 2012/2018 7000 SHRA

Temporary - 40% Likelihood

Temporary - 40% Likelihood during this time.

Conditions
Rain

Aug-20@
18:00 UTC

Aug-20 @ 18:00 UTC

Aug-21@
06:00 UTC

Aug-21 @ 06:00 UTC

BECMG 2018/2021 VRB05KT

Becoming

Becoming Conditions expected by Tue, Aug 20, 2019 @ 21:00 UTC

Wind
  • Variable at 5 KTS
Cloud Levels
  • Scattered at 2,500' AGL

Aug-21@
00:00 UTC

Aug-21 @ 00:00 UTC

Aug-21@
08:00 UTC

Aug-21 @ 08:00 UTC

PROB30 TEMPO 2100/2108 7000 RA BKN014

Temporary - 30% Likelihood

Temporary - 30% Likelihood during this time.

Conditions
Rain
Cloud Levels
  • Broken at 1,400' AGL

Aug-21@
06:00 UTC

Aug-21 @ 06:00 UTC

Aug-21@
12:00 UTC

Aug-21 @ 12:00 UTC

BECMG 2106/2109 22010KT

Becoming

Becoming Conditions expected by Wed, Aug 21, 2019 @ 09:00 UTC

Wind
  • 220° at 10 KTS
Cloud Levels
  • Scattered at 2,500' AGL

Aug-21@
10:00 UTC

Aug-21 @ 10:00 UTC

Aug-21@
12:00 UTC

Aug-21 @ 12:00 UTC

PROB30 TEMPO 2110/2112 22015G25KT

Temporary - 30% Likelihood

Temporary - 30% Likelihood during this time.

Wind
  • 220° at 15 KTS
  • {Gusting to 25 KTS